Philomene P. Perera — WDC3201 — position and weather

sailwx.info

Track history (hours):
 
Tides and Currents Weather Stations Pressure Air Temp Water Temp Dewpoint Dewpoint Depression Visibility Wind Speed Wind Dir Waves Ship Positions

Philomene P. Perera

Owner: Settoon Towing, L.L.C., Houma, LA. More information available from US FCC via Universal Licensing System and Coast Guard Vessel Documentation Center.

Last reported at 2017-Sep-25 20:05 UTC. Time now 2017-Sep-26 16:40 UTC.
Position N 29°25' W 090°44'.

Length 16 m; draft 5 m.

Type: Towing. MMSI: 367003820.

Date/timePositionNaut miles runAvg speedWind from/ knotsBaromVisibWave heightAir tempDewpointWater temp
2017-Sep-25 20:05N 29°25' W 090°44'1 8.3
2017-Sep-25 20:00N 29°25' W 090°43'4 8.3
2017-Sep-25 19:30N 29°29' W 090°43'4 8.0
2017-Sep-25 19:00N 29°33' W 090°42'2 3.4
2017-Sep-25 18:30N 29°35' W 090°43'0 0.0
2017-Sep-25 18:00N 29°35' W 090°43'0 0.0
2017-Sep-25 17:30N 29°35' W 090°43'0 0.0
2017-Sep-25 17:00N 29°35' W 090°43'0 0.0
2017-Sep-25 16:30N 29°35' W 090°43'0 0.0
2017-Sep-25 16:00N 29°35' W 090°43'0 0.0
2017-Sep-25 15:30N 29°35' W 090°43'0 0.0
2017-Sep-25 15:00N 29°35' W 090°43'0 0.0
2017-Sep-25 14:30N 29°35' W 090°43'0 0.0
2017-Sep-25 14:00N 29°35' W 090°43'0 0.2
2017-Sep-25 13:30N 29°35' W 090°43'0 0.0
2017-Sep-25 13:00N 29°35' W 090°43'0 0.2
2017-Sep-25 12:30N 29°35' W 090°43'0 0.0
2017-Sep-25 12:00N 29°35' W 090°43'0 0.0
2017-Sep-25 11:30N 29°35' W 090°43'0 0.0
2017-Sep-25 11:00N 29°35' W 090°43'0 0.0
2017-Sep-25 10:30N 29°35' W 090°43'0 0.0
2017-Sep-25 10:00N 29°35' W 090°43'0 0.0
2017-Sep-25 09:30N 29°35' W 090°43'0 0.0
2017-Sep-25 09:00N 29°35' W 090°43'0 0.0
2017-Sep-25 08:30N 29°35' W 090°43'0 0.0
2017-Sep-25 08:00N 29°35' W 090°43'0 0.0
2017-Sep-25 07:30N 29°35' W 090°43'0 0.0
2017-Sep-25 07:00N 29°35' W 090°43'0 0.0
2017-Sep-25 06:30N 29°35' W 090°43'0 0.0
2017-Sep-25 06:00N 29°35' W 090°43'0 0.0
2017-Sep-25 05:30N 29°35' W 090°43'0 0.0
2017-Sep-25 05:00N 29°35' W 090°43'0 0.0
2017-Sep-25 04:30N 29°35' W 090°43'0 0.0
2017-Sep-25 04:00N 29°35' W 090°43'0 0.0
2017-Sep-25 03:30N 29°35' W 090°43'0 0.0
2017-Sep-25 03:00N 29°35' W 090°43'0 0.0
2017-Sep-25 02:30N 29°35' W 090°43'0 0.0
2017-Sep-25 02:00N 29°35' W 090°43'0 0.0
2017-Sep-25 01:30N 29°35' W 090°43'0 0.0
2017-Sep-25 01:00N 29°35' W 090°43'0 0.0
2017-Sep-25 00:30N 29°35' W 090°43'1 1.8
2017-Sep-25 00:00N 29°34' W 090°43'3 6.5
2017-Sep-24 23:30N 29°32' W 090°46'4 7.2
2017-Sep-24 22:55N 29°32' W 090°51'1 2.3
2017-Sep-24 22:30N 29°31' W 090°52'0 1.0
2017-Sep-24 22:00N 29°31' W 090°52'0 0.0
2017-Sep-24 21:30N 29°31' W 090°52'2 3.3
2017-Sep-24 21:00N 29°32' W 090°51'4 7.3
2017-Sep-24 20:30N 29°32' W 090°47'3 6.7
2017-Sep-24 20:00N 29°34' W 090°43'1 1.4
2017-Sep-24 19:30N 29°35' W 090°43'3 6.6
2017-Sep-24 19:00N 29°32' W 090°46'4 7.3
2017-Sep-24 18:30N 29°32' W 090°50'2 4.5
2017-Sep-24 18:00N 29°31' W 090°52'0 0.2
2017-Sep-24 17:30N 29°31' W 090°52'1 1.8
2017-Sep-24 16:59N 29°32' W 090°51'3 5.8
2017-Sep-24 16:30N 29°32' W 090°48'3 6.7
2017-Sep-24 16:00N 29°34' W 090°45'2 4.1
2017-Sep-24 15:30N 29°35' W 090°43'0 0.0
2017-Sep-24 15:00N 29°35' W 090°43'0 0.0
2017-Sep-24 14:30N 29°35' W 090°43'1 1.6
2017-Sep-24 14:00N 29°34' W 090°43'3 6.4
2017-Sep-24 13:30N 29°32' W 090°46'4 7.5
2017-Sep-24 13:00N 29°32' W 090°50'2 3.8
2017-Sep-24 12:30N 29°31' W 090°52'0 0.1
2017-Sep-24 12:00N 29°31' W 090°52'0 0.0
2017-Sep-24 11:30N 29°31' W 090°52'0 0.0
2017-Sep-24 11:00N 29°31' W 090°52'0 0.0
2017-Sep-24 10:30N 29°31' W 090°52'0 0.0
2017-Sep-24 10:00N 29°31' W 090°52'0 0.0
2017-Sep-24 09:30N 29°31' W 090°52'0 0.0
2017-Sep-24 09:00N 29°31' W 090°52'0 0.0
2017-Sep-24 08:30N 29°31' W 090°52'0 0.0
2017-Sep-24 07:59N 29°31' W 090°52'0 0.0
2017-Sep-24 07:30N 29°31' W 090°52'0 0.0
2017-Sep-24 07:00N 29°31' W 090°52'0 0.0
2017-Sep-24 06:30N 29°31' W 090°52'0 0.0
2017-Sep-24 06:00N 29°31' W 090°52'0 0.0
2017-Sep-24 05:30N 29°31' W 090°52'0 0.0
2017-Sep-24 05:00N 29°31' W 090°52'0 0.0
2017-Sep-24 04:29N 29°31' W 090°52'0 0.0
2017-Sep-24 04:00N 29°31' W 090°52'0 0.0
2017-Sep-24 03:30N 29°31' W 090°52'0 0.0
2017-Sep-24 03:00N 29°31' W 090°52'0 0.0
2017-Sep-24 02:30N 29°31' W 090°52'0 0.0
2017-Sep-24 02:00N 29°31' W 090°52'1 2.0
2017-Sep-24 01:30N 29°32' W 090°52'3 6.6
2017-Sep-24 01:00N 29°32' W 090°48'3 6.6
2017-Sep-24 00:30N 29°34' W 090°45'2 3.5
2017-Sep-24 00:00N 29°35' W 090°43'2 3.3
2017-Sep-23 23:30N 29°34' W 090°44'3 6.2
2017-Sep-23 23:00N 29°32' W 090°48'4 6.7
2017-Sep-23 22:28N 29°32' W 090°52'1 1.9
2017-Sep-23 22:00N 29°31' W 090°52'0 0.0
2017-Sep-23 21:30N 29°31' W 090°52'1 2.0
2017-Sep-23 20:59N 29°32' W 090°52'3 6.9
2017-Sep-23 20:30N 29°32' W 090°48'3 6.4
2017-Sep-23 20:00N 29°34' W 090°45'  
2017-Sep-21 06:33N 29°34' W 090°57'0 5.9
2017-Sep-21 06:30N 29°34' W 090°57'3 5.6
2017-Sep-21 06:00N 29°33' W 090°54'3 5.6
2017-Sep-21 05:31N 29°32' W 090°51'3 5.9
2017-Sep-21 05:01N 29°32' W 090°47'3 5.0
2017-Sep-21 04:30N 29°34' W 090°45'2 4.9
2017-Sep-21 04:01N 29°35' W 090°43'2 3.2
2017-Sep-21 03:31N 29°37' W 090°42'0 0.1
2017-Sep-21 03:01N 29°37' W 090°42'2 3.3
2017-Sep-21 02:31N 29°36' W 090°40'3 5.6
2017-Sep-21 02:01N 29°35' W 090°38'3 5.6
2017-Sep-21 01:30N 29°34' W 090°34'3 5.8
2017-Sep-21 01:00N 29°34' W 090°31'2 0.0
2017-Sep-19 15:42N 29°34' W 090°29'1 7.2
2017-Sep-19 15:30N 29°34' W 090°31'4 7.2
2017-Sep-19 15:00N 29°35' W 090°35'3 6.7
2017-Sep-19 14:30N 29°35' W 090°39'3 6.9
2017-Sep-19 14:00N 29°37' W 090°42'2 4.0
2017-Sep-19 13:31N 29°35' W 090°43'0 0.2
2017-Sep-19 13:01N 29°35' W 090°43'0 0.0
2017-Sep-19 12:30N 29°35' W 090°43'0 0.2
2017-Sep-19 12:01N 29°35' W 090°43'0 0.0
2017-Sep-19 11:31N 29°35' W 090°43'0 0.0
2017-Sep-19 11:01N 29°35' W 090°43'0 0.0
2017-Sep-19 10:31N 29°35' W 090°43'0 0.0
2017-Sep-19 10:00N 29°35' W 090°43'0 0.0
2017-Sep-19 09:30N 29°35' W 090°43'0 0.0
2017-Sep-19 09:01N 29°35' W 090°43'0 0.0
2017-Sep-19 08:31N 29°35' W 090°43'0 0.0
2017-Sep-19 08:01N 29°35' W 090°43'0 0.0
2017-Sep-19 07:30N 29°35' W 090°43'0 0.0
2017-Sep-19 07:00N 29°35' W 090°43'0 0.0
2017-Sep-19 06:30N 29°35' W 090°43'0 0.0
2017-Sep-19 06:00N 29°35' W 090°43'0 0.0
2017-Sep-19 05:30N 29°35' W 090°43'0 0.0
2017-Sep-19 05:00N 29°35' W 090°43'0 0.0
2017-Sep-19 04:30N 29°35' W 090°43'0 0.0
2017-Sep-19 04:01N 29°35' W 090°43'0 0.0
2017-Sep-19 03:31N 29°35' W 090°43'0 0.0
2017-Sep-19 03:00N 29°35' W 090°43'0 0.0
2017-Sep-19 02:30N 29°35' W 090°43'0 0.0
2017-Sep-19 02:00N 29°35' W 090°43'0 0.0
2017-Sep-19 01:31N 29°35' W 090°43'0 0.0
2017-Sep-19 01:00N 29°35' W 090°43'0 0.0
2017-Sep-19 00:30N 29°35' W 090°43'0 0.0
2017-Sep-19 00:01N 29°35' W 090°43'0 0.0
2017-Sep-18 23:30N 29°35' W 090°43'0 0.0
2017-Sep-18 23:01N 29°35' W 090°43'0 0.0
2017-Sep-18 22:31N 29°35' W 090°43'0 0.0
2017-Sep-18 22:01N 29°35' W 090°43'0 0.0
2017-Sep-18 21:31N 29°35' W 090°43'0 0.0
2017-Sep-18 21:00N 29°35' W 090°43'0 0.0
2017-Sep-18 20:31N 29°35' W 090°43'0 0.0
2017-Sep-18 20:00N 29°35' W 090°43'0 0.0
2017-Sep-18 19:30N 29°35' W 090°43'0 0.0
2017-Sep-18 19:01N 29°35' W 090°43'0 0.1
2017-Sep-18 18:31N 29°35' W 090°43'3 5.7
2017-Sep-18 18:00N 29°33' W 090°45'3 6.8
2017-Sep-18 17:30N 29°32' W 090°49'6 0.2
2017-Sep-17 04:59N 29°34' W 090°56'4 6.0
2017-Sep-17 04:20N 29°32' W 090°52'2 5.7
2017-Sep-17 04:00N 29°32' W 090°50'3 5.5
2017-Sep-17 03:30N 29°32' W 090°47'3 5.1
2017-Sep-17 03:01N 29°34' W 090°44'2 3.2
2017-Sep-17 02:31N 29°35' W 090°43'0 0.0
2017-Sep-17 02:00N 29°35' W 090°43'0 0.0
2017-Sep-17 01:30N 29°35' W 090°43'2 3.5
2017-Sep-17 01:00N 29°37' W 090°42'2 4.3
2017-Sep-17 00:30N 29°36' W 090°40'3 5.6
2017-Sep-17 00:00N 29°35' W 090°37'3 5.3
2017-Sep-16 23:30N 29°34' W 090°34'3 5.8
2017-Sep-16 23:00N 29°34' W 090°31'  
Track history (hours):
 
Tides and Currents Weather Stations Pressure Air Temp Water Temp Dewpoint Dewpoint Depression Visibility Wind Speed Wind Dir Waves Ship Positions

Philomene P. Perera

Owner: Settoon Towing, L.L.C., Houma, LA. More information available from US FCC via Universal Licensing System and Coast Guard Vessel Documentation Center.

Last reported at 2017-Sep-25 20:05 UTC. Time now 2017-Sep-26 16:40 UTC.
Position N 29°25' W 090°44'.

Length 16 m; draft 5 m.

Type: Towing. MMSI: 367003820.

Date/timePositionNaut miles runAvg speedWind from/ knotsBaromVisibWave heightAir tempDewpointWater temp
2017-Sep-25 20:05N 29°25' W 090°44'1 8.3
2017-Sep-25 20:00N 29°25' W 090°43'4 8.3
2017-Sep-25 19:30N 29°29' W 090°43'4 8.0
2017-Sep-25 19:00N 29°33' W 090°42'2 3.4
2017-Sep-25 18:30N 29°35' W 090°43'0 0.0
2017-Sep-25 18:00N 29°35' W 090°43'0 0.0
2017-Sep-25 17:30N 29°35' W 090°43'0 0.0
2017-Sep-25 17:00N 29°35' W 090°43'0 0.0
2017-Sep-25 16:30N 29°35' W 090°43'0 0.0
2017-Sep-25 16:00N 29°35' W 090°43'0 0.0
2017-Sep-25 15:30N 29°35' W 090°43'0 0.0
2017-Sep-25 15:00N 29°35' W 090°43'0 0.0
2017-Sep-25 14:30N 29°35' W 090°43'0 0.0
2017-Sep-25 14:00N 29°35' W 090°43'0 0.2
2017-Sep-25 13:30N 29°35' W 090°43'0 0.0
2017-Sep-25 13:00N 29°35' W 090°43'0 0.2
2017-Sep-25 12:30N 29°35' W 090°43'0 0.0
2017-Sep-25 12:00N 29°35' W 090°43'0 0.0
2017-Sep-25 11:30N 29°35' W 090°43'0 0.0
2017-Sep-25 11:00N 29°35' W 090°43'0 0.0
2017-Sep-25 10:30N 29°35' W 090°43'0 0.0
2017-Sep-25 10:00N 29°35' W 090°43'0 0.0
2017-Sep-25 09:30N 29°35' W 090°43'0 0.0
2017-Sep-25 09:00N 29°35' W 090°43'0 0.0
2017-Sep-25 08:30N 29°35' W 090°43'0 0.0
2017-Sep-25 08:00N 29°35' W 090°43'0 0.0
2017-Sep-25 07:30N 29°35' W 090°43'0 0.0
2017-Sep-25 07:00N 29°35' W 090°43'0 0.0
2017-Sep-25 06:30N 29°35' W 090°43'0 0.0
2017-Sep-25 06:00N 29°35' W 090°43'0 0.0
2017-Sep-25 05:30N 29°35' W 090°43'0 0.0
2017-Sep-25 05:00N 29°35' W 090°43'0 0.0
2017-Sep-25 04:30N 29°35' W 090°43'0 0.0
2017-Sep-25 04:00N 29°35' W 090°43'0 0.0
2017-Sep-25 03:30N 29°35' W 090°43'0 0.0
2017-Sep-25 03:00N 29°35' W 090°43'0 0.0
2017-Sep-25 02:30N 29°35' W 090°43'0 0.0
2017-Sep-25 02:00N 29°35' W 090°43'0 0.0
2017-Sep-25 01:30N 29°35' W 090°43'0 0.0
2017-Sep-25 01:00N 29°35' W 090°43'0 0.0
2017-Sep-25 00:30N 29°35' W 090°43'1 1.8
2017-Sep-25 00:00N 29°34' W 090°43'3 6.5
2017-Sep-24 23:30N 29°32' W 090°46'4 7.2
2017-Sep-24 22:55N 29°32' W 090°51'1 2.3
2017-Sep-24 22:30N 29°31' W 090°52'0 1.0
2017-Sep-24 22:00N 29°31' W 090°52'0 0.0
2017-Sep-24 21:30N 29°31' W 090°52'2 3.3
2017-Sep-24 21:00N 29°32' W 090°51'4 7.3
2017-Sep-24 20:30N 29°32' W 090°47'3 6.7
2017-Sep-24 20:00N 29°34' W 090°43'1 1.4
2017-Sep-24 19:30N 29°35' W 090°43'3 6.6
2017-Sep-24 19:00N 29°32' W 090°46'4 7.3
2017-Sep-24 18:30N 29°32' W 090°50'2 4.5
2017-Sep-24 18:00N 29°31' W 090°52'0 0.2
2017-Sep-24 17:30N 29°31' W 090°52'1 1.8
2017-Sep-24 16:59N 29°32' W 090°51'3 5.8
2017-Sep-24 16:30N 29°32' W 090°48'3 6.7
2017-Sep-24 16:00N 29°34' W 090°45'2 4.1
2017-Sep-24 15:30N 29°35' W 090°43'0 0.0
2017-Sep-24 15:00N 29°35' W 090°43'0 0.0
2017-Sep-24 14:30N 29°35' W 090°43'1 1.6
2017-Sep-24 14:00N 29°34' W 090°43'3 6.4
2017-Sep-24 13:30N 29°32' W 090°46'4 7.5
2017-Sep-24 13:00N 29°32' W 090°50'2 3.8
2017-Sep-24 12:30N 29°31' W 090°52'0 0.1
2017-Sep-24 12:00N 29°31' W 090°52'0 0.0
2017-Sep-24 11:30N 29°31' W 090°52'0 0.0
2017-Sep-24 11:00N 29°31' W 090°52'0 0.0
2017-Sep-24 10:30N 29°31' W 090°52'0 0.0
2017-Sep-24 10:00N 29°31' W 090°52'0 0.0
2017-Sep-24 09:30N 29°31' W 090°52'0 0.0
2017-Sep-24 09:00N 29°31' W 090°52'0 0.0
2017-Sep-24 08:30N 29°31' W 090°52'0 0.0
2017-Sep-24 07:59N 29°31' W 090°52'0 0.0
2017-Sep-24 07:30N 29°31' W 090°52'0 0.0
2017-Sep-24 07:00N 29°31' W 090°52'0 0.0
2017-Sep-24 06:30N 29°31' W 090°52'0 0.0
2017-Sep-24 06:00N 29°31' W 090°52'0 0.0
2017-Sep-24 05:30N 29°31' W 090°52'0 0.0
2017-Sep-24 05:00N 29°31' W 090°52'0 0.0
2017-Sep-24 04:29N 29°31' W 090°52'0 0.0
2017-Sep-24 04:00N 29°31' W 090°52'0 0.0
2017-Sep-24 03:30N 29°31' W 090°52'0 0.0
2017-Sep-24 03:00N 29°31' W 090°52'0 0.0
2017-Sep-24 02:30N 29°31' W 090°52'0 0.0
2017-Sep-24 02:00N 29°31' W 090°52'1 2.0
2017-Sep-24 01:30N 29°32' W 090°52'3 6.6
2017-Sep-24 01:00N 29°32' W 090°48'3 6.6
2017-Sep-24 00:30N 29°34' W 090°45'2 3.5
2017-Sep-24 00:00N 29°35' W 090°43'2 3.3
2017-Sep-23 23:30N 29°34' W 090°44'3 6.2
2017-Sep-23 23:00N 29°32' W 090°48'4 6.7
2017-Sep-23 22:28N 29°32' W 090°52'1 1.9
2017-Sep-23 22:00N 29°31' W 090°52'0 0.0
2017-Sep-23 21:30N 29°31' W 090°52'1 2.0
2017-Sep-23 20:59N 29°32' W 090°52'3 6.9
2017-Sep-23 20:30N 29°32' W 090°48'3 6.4
2017-Sep-23 20:00N 29°34' W 090°45'  
2017-Sep-21 06:33N 29°34' W 090°57'0 5.9
2017-Sep-21 06:30N 29°34' W 090°57'3 5.6
2017-Sep-21 06:00N 29°33' W 090°54'3 5.6
2017-Sep-21 05:31N 29°32' W 090°51'3 5.9
2017-Sep-21 05:01N 29°32' W 090°47'3 5.0
2017-Sep-21 04:30N 29°34' W 090°45'2 4.9
2017-Sep-21 04:01N 29°35' W 090°43'2 3.2
2017-Sep-21 03:31N 29°37' W 090°42'0 0.1
2017-Sep-21 03:01N 29°37' W 090°42'2 3.3
2017-Sep-21 02:31N 29°36' W 090°40'3 5.6
2017-Sep-21 02:01N 29°35' W 090°38'3 5.6
2017-Sep-21 01:30N 29°34' W 090°34'3 5.8
2017-Sep-21 01:00N 29°34' W 090°31'2 0.0
2017-Sep-19 15:42N 29°34' W 090°29'1 7.2
2017-Sep-19 15:30N 29°34' W 090°31'4 7.2
2017-Sep-19 15:00N 29°35' W 090°35'3 6.7
2017-Sep-19 14:30N 29°35' W 090°39'3 6.9
2017-Sep-19 14:00N 29°37' W 090°42'2 4.0
2017-Sep-19 13:31N 29°35' W 090°43'0 0.2
2017-Sep-19 13:01N 29°35' W 090°43'0 0.0
2017-Sep-19 12:30N 29°35' W 090°43'0 0.2
2017-Sep-19 12:01N 29°35' W 090°43'0 0.0
2017-Sep-19 11:31N 29°35' W 090°43'0 0.0
2017-Sep-19 11:01N 29°35' W 090°43'0 0.0
2017-Sep-19 10:31N 29°35' W 090°43'0 0.0
2017-Sep-19 10:00N 29°35' W 090°43'0 0.0
2017-Sep-19 09:30N 29°35' W 090°43'0 0.0
2017-Sep-19 09:01N 29°35' W 090°43'0 0.0
2017-Sep-19 08:31N 29°35' W 090°43'0 0.0
2017-Sep-19 08:01N 29°35' W 090°43'0 0.0
2017-Sep-19 07:30N 29°35' W 090°43'0 0.0
2017-Sep-19 07:00N 29°35' W 090°43'0 0.0
2017-Sep-19 06:30N 29°35' W 090°43'0 0.0
2017-Sep-19 06:00N 29°35' W 090°43'0 0.0
2017-Sep-19 05:30N 29°35' W 090°43'0 0.0
2017-Sep-19 05:00N 29°35' W 090°43'0 0.0
2017-Sep-19 04:30N 29°35' W 090°43'0 0.0
2017-Sep-19 04:01N 29°35' W 090°43'0 0.0
2017-Sep-19 03:31N 29°35' W 090°43'0 0.0
2017-Sep-19 03:00N 29°35' W 090°43'0 0.0
2017-Sep-19 02:30N 29°35' W 090°43'0 0.0
2017-Sep-19 02:00N 29°35' W 090°43'0 0.0
2017-Sep-19 01:31N 29°35' W 090°43'0 0.0
2017-Sep-19 01:00N 29°35' W 090°43'0 0.0
2017-Sep-19 00:30N 29°35' W 090°43'0 0.0
2017-Sep-19 00:01N 29°35' W 090°43'0 0.0
2017-Sep-18 23:30N 29°35' W 090°43'0 0.0
2017-Sep-18 23:01N 29°35' W 090°43'0 0.0
2017-Sep-18 22:31N 29°35' W 090°43'0 0.0
2017-Sep-18 22:01N 29°35' W 090°43'0 0.0
2017-Sep-18 21:31N 29°35' W 090°43'0 0.0
2017-Sep-18 21:00N 29°35' W 090°43'0 0.0
2017-Sep-18 20:31N 29°35' W 090°43'0 0.0
2017-Sep-18 20:00N 29°35' W 090°43'0 0.0
2017-Sep-18 19:30N 29°35' W 090°43'0 0.0
2017-Sep-18 19:01N 29°35' W 090°43'0 0.1
2017-Sep-18 18:31N 29°35' W 090°43'3 5.7
2017-Sep-18 18:00N 29°33' W 090°45'3 6.8
2017-Sep-18 17:30N 29°32' W 090°49'6 0.2
2017-Sep-17 04:59N 29°34' W 090°56'4 6.0
2017-Sep-17 04:20N 29°32' W 090°52'2 5.7
2017-Sep-17 04:00N 29°32' W 090°50'3 5.5
2017-Sep-17 03:30N 29°32' W 090°47'3 5.1
2017-Sep-17 03:01N 29°34' W 090°44'2 3.2
2017-Sep-17 02:31N 29°35' W 090°43'0 0.0
2017-Sep-17 02:00N 29°35' W 090°43'0 0.0
2017-Sep-17 01:30N 29°35' W 090°43'2 3.5
2017-Sep-17 01:00N 29°37' W 090°42'2 4.3
2017-Sep-17 00:30N 29°36' W 090°40'3 5.6
2017-Sep-17 00:00N 29°35' W 090°37'3 5.3
2017-Sep-16 23:30N 29°34' W 090°34'3 5.8
2017-Sep-16 23:00N 29°34' W 090°31'  

Dump ship's entire track history